createdAt,value
2023-01-26T00:05:21.813Z,40.25
2023-01-26T00:10:27.168Z,43.75
2023-01-26T00:15:33.408Z,37.00
2023-01-26T00:20:38.389Z,37.75
2023-01-26T00:25:42.830Z,35.00
2023-01-26T00:30:50.427Z,35.75
2023-01-26T00:35:57.917Z,43.75
2023-01-26T00:41:03.982Z,42.00
2023-01-26T00:46:08.424Z,42.25
2023-01-26T00:51:12.916Z,50.75
2023-01-26T00:56:17.514Z,45.25
2023-01-26T01:01:21.960Z,50.50
2023-01-26T01:06:26.679Z,54.25
2023-01-26T01:11:31.248Z,40.00
2023-01-26T01:16:35.812Z,37.25
2023-01-26T01:21:40.539Z,46.25
2023-01-26T01:26:47.450Z,52.00
2023-01-26T10:49:29.769Z,15.00
2023-01-26T10:54:38.868Z,16.00
2023-01-26T10:59:47.441Z,18.75
2023-01-26T11:05:05.948Z,26.25
2023-01-26T11:10:21.555Z,17.75
2023-01-26T11:15:29.226Z,18.25
2023-01-26T11:20:56.030Z,19.00
2023-01-26T11:26:00.778Z,20.75
2023-01-26T11:31:06.551Z,15.25
2023-01-26T11:36:26.225Z,20.25
2023-01-26T11:41:33.732Z,15.00
2023-01-26T11:46:56.586Z,16.50
2023-01-26T11:52:04.806Z,16.75
2023-01-26T11:57:18.843Z,14.25
2023-01-26T12:02:29.903Z,17.00
2023-01-26T12:07:57.381Z,17.25
2023-01-26T12:13:08.495Z,14.25
2023-01-26T12:18:27.921Z,16.75
2023-01-26T12:23:42.184Z,16.00
2023-01-26T12:28:49.801Z,16.25
2023-01-26T12:33:56.946Z,15.00
2023-01-26T12:39:19.391Z,20.25
2023-01-26T12:44:32.405Z,16.00
2023-01-26T12:49:39.591Z,14.00
2023-01-26T12:55:06.748Z,16.25
2023-01-26T13:00:31.180Z,16.75
2023-01-26T13:05:37.489Z,15.00
2023-01-26T13:10:51.611Z,22.00
2023-01-26T13:16:14.976Z,13.75
2023-01-26T13:21:37.961Z,15.50
2023-01-26T13:26:54.048Z,16.50
2023-01-26T13:32:03.623Z,17.25
2023-01-26T13:37:13.725Z,25.00
2023-01-26T13:42:22.291Z,16.50
2023-01-26T13:47:29.925Z,16.00
2023-01-26T13:52:35.151Z,20.00
2023-01-26T13:57:39.793Z,15.25
2023-01-26T14:02:51.011Z,18.25
2023-01-26T14:07:56.142Z,19.50
2023-01-26T14:13:02.541Z,16.25
2023-01-26T14:18:08.360Z,14.25
2023-01-26T14:23:16.733Z,16.00
2023-01-26T14:28:23.887Z,19.50
2023-01-26T14:33:29.641Z,14.00
2023-01-26T14:38:45.419Z,16.50
2023-01-26T14:43:52.709Z,17.00
2023-01-26T14:49:07.544Z,15.25
2023-01-26T14:54:31.134Z,15.00
2023-01-26T14:59:39.827Z,16.00
2023-01-26T15:04:46.637Z,22.00
2023-01-26T15:09:55.245Z,18.75
2023-01-26T15:15:00.688Z,17.00
2023-01-26T15:20:13.425Z,17.00
2023-01-26T15:25:28.548Z,14.50
2023-01-26T15:30:35.607Z,17.25
2023-01-26T15:35:40.301Z,23.00
2023-01-26T15:40:45.057Z,21.00
2023-01-26T15:45:52.897Z,17.25
2023-01-26T15:50:57.625Z,18.50
2023-01-26T15:56:02.898Z,21.00
2023-01-26T16:01:09.099Z,24.50
2023-01-26T16:06:25.601Z,21.25
2023-01-26T16:11:31.739Z,28.75
2023-01-26T16:16:36.508Z,17.00
2023-01-26T16:21:41.434Z,21.50
2023-01-26T16:26:46.214Z,21.00
2023-01-26T16:31:53.292Z,19.25
2023-01-26T16:36:58.050Z,20.00
2023-01-26T16:42:02.169Z,20.50
2023-01-26T16:47:07.055Z,18.75
2023-01-26T16:52:11.828Z,17.00
2023-01-26T16:57:16.445Z,20.25
2023-01-26T17:02:34.990Z,22.25
2023-01-26T17:07:39.544Z,21.25
2023-01-26T17:12:43.931Z,22.50
2023-01-26T17:17:52.092Z,19.75
2023-01-26T17:22:56.842Z,20.00
2023-01-26T17:28:01.374Z,18.50
2023-01-26T17:33:06.178Z,22.25
2023-01-26T17:38:10.714Z,17.00
2023-01-26T17:43:15.082Z,19.75
2023-01-26T17:48:19.198Z,20.00
2023-01-26T17:53:25.614Z,25.75
2023-01-26T17:58:30.062Z,21.00
2023-01-26T18:03:34.689Z,21.25
2023-01-26T18:08:40.699Z,21.00
2023-01-26T18:13:45.564Z,17.25
2023-01-26T18:18:50.665Z,18.75
2023-01-26T18:23:56.259Z,23.25
2023-01-26T18:29:01.879Z,22.00
2023-01-26T18:34:06.521Z,27.50
2023-01-26T18:39:13.448Z,23.75
2023-01-26T18:44:20.394Z,20.75
2023-01-26T18:49:24.802Z,20.50
2023-01-26T18:54:30.457Z,27.50
2023-01-26T18:59:34.827Z,22.50
2023-01-26T19:04:39.221Z,23.50
2023-01-26T19:09:43.928Z,18.50
2023-01-26T19:14:48.170Z,21.00
2023-01-26T19:19:52.311Z,19.75
2023-01-26T19:24:56.912Z,19.25
2023-01-26T19:30:01.261Z,18.75
2023-01-26T19:35:05.734Z,18.00
2023-01-26T19:40:10.433Z,24.50
2023-01-26T19:45:14.718Z,20.75
2023-01-26T19:50:19.418Z,21.50
2023-01-26T19:55:23.902Z,18.00
2023-01-26T20:00:29.276Z,18.25
2023-01-26T20:05:37.315Z,23.00
2023-01-26T20:10:41.545Z,18.25
2023-01-26T20:15:45.751Z,17.25
2023-01-26T20:20:55.705Z,21.00
2023-01-26T20:26:08.117Z,18.00
2023-01-26T20:31:15.185Z,20.50
2023-01-26T20:36:21.387Z,23.25
2023-01-26T20:41:28.637Z,21.25
2023-01-26T20:46:34.782Z,21.00
2023-01-26T20:51:40.776Z,21.75
2023-01-26T20:56:46.993Z,18.25
2023-01-26T21:01:51.610Z,20.00
2023-01-26T21:06:56.716Z,20.25
2023-01-26T21:12:01.224Z,17.50
2023-01-26T21:17:06.488Z,19.50
2023-01-26T21:22:10.997Z,17.50
2023-01-26T21:27:15.788Z,15.00
2023-01-26T21:32:20.218Z,17.25
2023-01-26T21:37:24.778Z,19.25
2023-01-26T21:42:29.210Z,19.00
2023-01-26T21:47:33.337Z,16.75
2023-01-26T21:52:56.381Z,14.00
2023-01-26T21:58:19.323Z,16.00
2023-01-26T22:03:23.742Z,17.00
2023-01-26T22:08:28.286Z,14.25
2023-01-26T22:13:32.814Z,15.00
2023-01-26T22:18:37.635Z,18.25
2023-01-26T22:23:42.274Z,14.25
2023-01-26T22:28:51.682Z,14.25
2023-01-26T22:33:57.030Z,18.25
2023-01-26T22:39:01.526Z,18.50
2023-01-26T22:44:13.470Z,13.00
2023-01-26T22:49:17.988Z,14.75
2023-01-26T22:54:22.630Z,13.25
2023-01-26T22:59:27.386Z,14.00
2023-01-26T23:04:31.998Z,13.75
2023-01-26T23:09:36.495Z,14.50
2023-01-26T23:14:40.807Z,14.00
2023-01-26T23:19:45.367Z,13.25
2023-01-26T23:25:09.598Z,13.50
2023-01-26T23:30:14.714Z,16.50
2023-01-26T23:35:19.580Z,16.50
2023-01-26T23:40:23.629Z,14.75
2023-01-26T23:45:28.410Z,14.25
2023-01-26T23:50:32.971Z,13.00
2023-01-26T23:55:37.918Z,15.50
